KBVY/BVY METAR and TAF weather

Enter ICAO airport designator
Station Type Date Time Source
KBVY METAR 2019/10/18 05:53 UTC NOAA

KBVY 180553Z AUTO 27008KT 10SM CLR 09/03 A2943 RMK AO2 SLP962 T00890028 10100 20089 53034


Station Type Date Time Source
KBVY Decoded METAR 2019/10/18 05:53 UTC NOAA

BEVERLY MUNICIPAL AIRPORT, MA, United States (KBVY) 42-35N 070-55W 28M
Oct 18, 2019 - 01:53 AM EDT / 2019.10.18 0553 UTC
Wind: from the W (270 degrees) at 9 MPH (8 KT):0
Visibility: 10 mile(s):0
Sky conditions: clear
Temperature: 48.0 F (8.9 C)
Dew Point: 37.0 F (2.8 C)
Relative Humidity: 65%
Pressure (altimeter): 29.43 in. Hg (996 hPa)
Pressure tendency: 0.10 inches (3.4 hPa) higher than three hours ago
ob: KBVY 180553Z AUTO 27008KT 10SM CLR 09/03 A2943 RMK AO2 SLP962 T00890028 10100 20089 53034
cycle: 6

Station Type Date Time Source
KBVY TAF UTC NOAA

Error!

Example: see airport list